Time;durP1;ratioP1;P1;durP2;ratioP2;P2;SDS_P1;SDS_P2;PMS_P1;PMS_P2;Temp;Humidity;BMP_temperature;BMP_pressure;BME280_temperature;BME280_humidity;BME280_pressure;Samples;Min_cycle;Max_cycle;Signal;HPM_P1;HPM_P2
2021/12/14 00:01:31;;;;;;;13.95;8.85;;;;;;;6.55;100.00;98652.16;5007007;28;20042;-68
2021/12/14 00:04:06;;;;;;;15.73;10.02;;;;;;;6.57;100.00;98653.84;5005927;28;20054;-69
2021/12/14 00:06:33;;;;;;;12.05;7.95;;;;;;;6.87;100.00;98644.09;5008142;28;20148;-67
2021/12/14 00:09:02;;;;;;;12.20;6.95;;;;;;;7.00;100.00;98640.50;5014474;28;20067;-67
2021/12/14 00:11:54;;;;;;;9.52;6.70;;;;;;;7.01;100.00;98649.94;5012807;28;20128;-69
2021/12/14 00:15:03;;;;;;;13.52;9.05;;;;;;;6.71;100.00;98648.53;5000603;28;20068;-68
2021/12/14 00:17:21;;;;;;;17.92;12.98;;;;;;;6.57;100.00;98645.22;5010992;28;20136;-68
2021/12/14 00:19:52;;;;;;;16.38;11.38;;;;;;;6.71;100.00;98640.81;5003962;28;20129;-68
2021/12/14 00:22:35;;;;;;;17.05;11.23;;;;;;;6.76;100.00;98641.59;5005050;28;20125;-68
2021/12/14 00:25:05;;;;;;;17.27;11.65;;;;;;;6.79;100.00;98648.44;5014783;28;20057;-68
2021/12/14 00:27:33;;;;;;;19.30;12.52;;;;;;;6.57;100.00;98647.81;5005543;28;20101;-67
2021/12/14 00:30:04;;;;;;;19.65;14.02;;;;;;;6.41;100.00;98660.84;5007562;28;20088;-68
2021/12/14 00:32:36;;;;;;;19.60;13.10;;;;;;;6.35;100.00;98667.78;5009537;28;20052;-68
2021/12/14 00:35:10;;;;;;;16.20;11.93;;;;;;;6.43;100.00;98656.53;5005594;28;20149;-68
2021/12/14 00:37:41;;;;;;;17.92;10.52;;;;;;;6.73;100.00;98648.50;5006308;28;20083;-67
2021/12/14 00:40:22;;;;;;;15.68;10.45;;;;;;;6.91;100.00;98650.91;5007135;28;20149;-67
2021/12/14 00:42:53;;;;;;;14.55;9.93;;;;;;;6.89;100.00;98645.78;5007746;28;20125;-68
2021/12/14 00:45:21;;;;;;;11.35;8.45;;;;;;;6.77;100.00;98645.88;5005031;28;20046;-67
2021/12/14 00:47:50;;;;;;;12.35;8.40;;;;;;;6.70;100.00;98633.91;5006042;28;20137;-68
2021/12/14 00:50:20;;;;;;;12.27;7.50;;;;;;;6.61;100.00;98634.84;5004813;28;20140;-68
2021/12/14 00:52:48;;;;;;;14.30;8.75;;;;;;;6.61;100.00;98641.75;5009603;28;20125;-68
2021/12/14 00:55:27;;;;;;;14.25;9.13;;;;;;;6.53;100.00;98628.09;5006500;28;20602;-67
2021/12/14 00:57:55;;;;;;;17.20;12.35;;;;;;;6.34;100.00;98630.84;5010259;28;20045;-67
2021/12/14 01:00:27;;;;;;;16.80;11.70;;;;;;;6.36;100.00;98629.06;5006172;28;20081;-68
2021/12/14 01:02:55;;;;;;;14.77;10.07;;;;;;;6.46;100.00;98627.28;5007795;28;20156;-68
2021/12/14 01:05:29;;;;;;;11.93;8.23;;;;;;;6.49;100.00;98628.09;5009480;28;20387;-68
2021/12/14 01:07:56;;;;;;;12.27;8.48;;;;;;;6.61;100.00;98624.53;5012439;28;20340;-68
2021/12/14 01:10:26;;;;;;;16.58;11.90;;;;;;;6.52;100.00;98613.47;5011739;28;20134;-68
2021/12/14 01:12:59;;;;;;;15.50;11.20;;;;;;;6.40;100.00;98620.44;5016423;28;20152;-68
2021/12/14 01:15:50;;;;;;;14.30;9.68;;;;;;;6.37;100.00;98622.22;5010210;28;20081;-68
2021/12/14 01:24:21;;;;;;;10.13;8.13;;;;;;;6.47;100.00;98635.00;5009926;28;20125;-67
2021/12/14 01:26:49;;;;;;;11.80;8.80;;;;;;;6.43;100.00;98642.78;5008034;28;20132;-68
2021/12/14 01:29:18;;;;;;;11.77;7.40;;;;;;;6.59;100.00;98646.94;4999333;28;20046;-68
2021/12/14 01:31:48;;;;;;;9.23;7.15;;;;;;;6.56;100.00;98639.22;5008893;28;20050;-68
2021/12/14 01:34:22;;;;;;;11.30;8.73;;;;;;;6.45;100.00;98641.03;5009175;28;20137;-68
2021/12/14 01:36:55;;;;;;;10.27;7.78;;;;;;;6.46;100.00;98642.75;5012567;28;20046;-68
2021/12/14 01:42:17;;;;;;;10.07;7.47;;;;;;;6.54;100.00;98646.09;5008942;28;20054;-67
2021/12/14 01:44:58;;;;;;;10.48;7.18;;;;;;;6.37;100.00;98645.41;5010859;28;20045;-68
2021/12/14 01:47:41;;;;;;;11.13;7.35;;;;;;;6.34;100.00;98646.31;5015533;28;20413;-68
2021/12/14 01:50:19;;;;;;;15.57;10.18;;;;;;;6.28;100.00;98647.19;5009497;28;20052;-68
2021/12/14 01:52:47;;;;;;;13.48;8.73;;;;;;;6.36;100.00;98648.84;5020433;28;20042;-68
2021/12/14 01:55:20;;;;;;;13.07;8.32;;;;;;;6.55;100.00;98642.69;5009097;28;20141;-68
2021/12/14 01:57:48;;;;;;;9.27;6.03;;;;;;;6.38;100.00;98652.28;5005063;28;20050;-68
2021/12/14 02:00:39;;;;;;;20.15;13.05;;;;;;;6.17;100.00;98645.56;4998515;28;20137;-68
2021/12/14 02:03:09;;;;;;;20.38;12.48;;;;;;;6.46;100.00;98647.91;4993882;28;20059;-68
2021/12/14 02:05:41;;;;;;;15.65;10.63;;;;;;;6.52;100.00;98647.84;5015783;28;20132;-68
2021/12/14 02:08:16;;;;;;;15.63;10.00;;;;;;;6.60;100.00;98652.94;5010204;28;20471;-68
2021/12/14 02:10:44;;;;;;;11.50;7.93;;;;;;;6.59;100.00;98666.69;5009541;28;20304;-68
2021/12/14 02:13:11;;;;;;;12.43;8.88;;;;;;;6.60;100.00;98666.69;5009297;28;20132;-68
2021/12/14 02:15:43;;;;;;;13.57;9.50;;;;;;;6.33;100.00;98669.53;5009722;28;20413;-68
2021/12/14 02:18:17;;;;;;;15.00;10.50;;;;;;;6.33;100.00;98661.78;5008459;28;20054;-68
2021/12/14 02:21:09;;;;;;;11.43;7.85;;;;;;;6.25;100.00;98656.69;5011982;28;20128;-67
2021/12/14 02:23:40;;;;;;;11.07;8.27;;;;;;;6.43;100.00;98669.44;5015597;28;20150;-67
2021/12/14 02:26:10;;;;;;;13.82;9.68;;;;;;;6.28;100.00;98672.13;5010638;28;20052;-67
2021/12/14 02:28:38;;;;;;;16.20;12.40;;;;;;;6.01;100.00;98689.50;5000208;28;20085;-68
2021/12/14 02:31:09;;;;;;;17.52;10.65;;;;;;;6.06;100.00;98690.31;5007047;28;20054;-67
2021/12/14 02:33:38;;;;;;;13.00;9.40;;;;;;;6.24;100.00;98689.34;5003746;28;20077;-67
2021/12/14 02:36:09;;;;;;;15.10;10.07;;;;;;;6.50;100.00;98693.47;5008337;28;20081;-68
2021/12/14 02:38:44;;;;;;;13.32;9.98;;;;;;;6.57;100.00;98679.63;4998512;28;20056;-68
2021/12/14 02:41:12;;;;;;;14.18;10.10;;;;;;;6.41;100.00;98660.84;5004013;28;20195;-67
2021/12/14 02:43:40;;;;;;;14.02;9.60;;;;;;;6.37;100.00;98650.59;5019800;28;20450;-68
2021/12/14 02:46:13;;;;;;;14.23;10.77;;;;;;;6.37;100.00;98668.63;4998945;28;20122;-68
2021/12/14 02:48:43;;;;;;;13.15;10.07;;;;;;;6.38;100.00;98672.91;4997708;28;20046;-67
2021/12/14 02:51:21;;;;;;;13.30;9.80;;;;;;;6.49;100.00;98664.22;5009596;28;20054;-68
2021/12/14 02:53:51;;;;;;;16.33;11.10;;;;;;;6.37;100.00;98666.91;5004054;28;20125;-68
2021/12/14 02:56:21;;;;;;;13.60;10.45;;;;;;;6.41;100.00;98657.41;4997739;28;20056;-68
2021/12/14 02:58:55;;;;;;;17.63;11.02;;;;;;;6.24;100.00;98660.13;5009061;28;20054;-68
2021/12/14 03:01:22;;;;;;;14.75;10.93;;;;;;;6.45;100.00;98649.66;5009453;28;20045;-68
2021/12/14 03:03:50;;;;;;;21.17;13.68;;;;;;;6.31;100.00;98651.47;5008692;28;20054;-68
2021/12/14 03:06:23;;;;;;;17.75;13.15;;;;;;;6.30;100.00;98647.19;5018284;28;20493;-68
2021/12/14 03:09:07;;;;;;;18.35;12.40;;;;;;;6.05;100.00;98649.09;5004854;28;20247;-68
2021/12/14 03:11:37;;;;;;;19.95;14.43;;;;;;;6.10;100.00;98641.34;5000677;28;20137;-68
2021/12/14 03:14:05;;;;;;;15.98;11.52;;;;;;;6.26;100.00;98632.63;5008094;28;20084;-67
2021/12/14 03:16:36;;;;;;;21.52;15.38;;;;;;;6.24;100.00;98617.16;5009737;28;20475;-68
2021/12/14 03:19:06;;;;;;;18.90;14.07;;;;;;;6.11;100.00;98622.41;5007729;28;20071;-68
2021/12/14 03:21:41;;;;;;;26.23;15.60;;;;;;;5.96;100.00;98625.97;5016560;28;20053;-68
2021/12/14 03:24:14;;;;;;;16.27;11.43;;;;;;;5.89;100.00;98632.88;5008883;28;20099;-67
2021/12/14 03:26:45;;;;;;;20.30;12.57;;;;;;;5.96;100.00;98628.56;5002923;28;20057;-67
2021/12/14 03:29:25;;;;;;;25.60;15.70;;;;;;;5.82;100.00;98633.78;5003577;28;20137;-68
2021/12/14 03:31:56;;;;;;;19.80;13.88;;;;;;;5.87;100.00;98625.13;5005623;28;20561;-68
2021/12/14 03:34:33;;;;;;;23.30;14.75;;;;;;;5.70;100.00;98632.09;4993861;28;20142;-67
2021/12/14 03:37:16;;;;;;;35.60;20.38;;;;;;;5.74;100.00;98651.84;5021130;28;20148;-68
2021/12/14 03:39:48;;;;;;;24.98;15.38;;;;;;;5.85;100.00;98654.34;4995095;28;20140;-68
2021/12/14 03:42:36;;;;;;;24.95;16.58;;;;;;;5.87;100.00;98647.47;5001518;28;20133;-67
2021/12/14 03:45:09;;;;;;;30.27;17.58;;;;;;;5.53;100.00;98646.81;4994682;28;20136;-68
2021/12/14 03:47:39;;;;;;;34.40;19.08;;;;;;;5.61;100.00;98640.78;5004220;28;20141;-66
2021/12/14 03:50:09;;;;;;;31.13;16.67;;;;;;;5.66;100.00;98643.31;5004674;28;20564;-68
2021/12/14 03:52:38;;;;;;;28.95;16.70;;;;;;;5.61;100.00;98645.03;5008763;28;20422;-67
2021/12/14 03:55:20;;;;;;;37.00;20.30;;;;;;;5.55;100.00;98663.13;5007210;28;20116;-68
2021/12/14 03:57:48;;;;;;;39.25;19.92;;;;;;;5.47;100.00;98662.28;4997465;28;20052;-68
2021/12/14 04:00:21;;;;;;;29.63;17.33;;;;;;;5.58;100.00;98657.94;4995289;28;20081;-68
2021/12/14 04:02:52;;;;;;;25.13;17.52;;;;;;;5.49;100.00;98643.41;5006215;28;20463;-67
2021/12/14 04:05:20;;;;;;;55.47;18.05;;;;;;;5.33;100.00;98637.47;5007244;28;20045;-67
2021/12/14 04:07:49;;;;;;;30.65;13.82;;;;;;;5.39;100.00;98636.59;5009346;28;20145;-68
2021/12/14 04:10:27;;;;;;;64.35;19.98;;;;;;;5.22;100.00;98641.78;5004120;28;20077;-68
2021/12/14 04:12:55;;;;;;;40.88;17.40;;;;;;;5.20;100.00;98646.97;5005795;28;20041;-68
2021/12/14 04:15:22;;;;;;;31.02;16.30;;;;;;;5.32;100.00;98640.91;5009599;28;20069;-68
2021/12/14 04:17:50;;;;;;;23.60;14.95;;;;;;;5.49;100.00;98634.81;4996126;28;20074;-69
2021/12/14 04:20:31;;;;;;;33.92;14.55;;;;;;;5.34;100.00;98623.75;5002506;28;20475;-68
2021/12/14 04:22:59;;;;;;;25.58;15.52;;;;;;;5.62;100.00;98621.88;4994816;28;20077;-69
2021/12/14 04:25:31;;;;;;;25.13;15.40;;;;;;;5.62;100.00;98608.97;5005947;28;20080;-68
2021/12/14 04:28:00;;;;;;;27.95;15.90;;;;;;;5.65;100.00;98600.38;5006035;28;20078;-68
2021/12/14 04:30:28;;;;;;;32.53;18.17;;;;;;;5.53;100.00;98603.88;5008384;28;20045;-68
2021/12/14 04:32:59;;;;;;;88.63;21.40;;;;;;;5.48;100.00;98617.66;4993253;28;20053;-68
2021/12/14 04:35:26;;;;;;;87.20;22.80;;;;;;;5.52;100.00;98601.31;4999590;28;20092;-69
2021/12/14 04:37:58;;;;;;;29.70;15.60;;;;;;;5.70;100.00;98631.25;5002351;28;20137;-67
2021/12/14 04:51:58;;;;;;;116.05;21.85;;;;;;;5.22;100.00;98601.50;5002096;28;20129;-67
2021/12/14 04:54:29;;;;;;;209.30;29.15;;;;;;;5.13;100.00;98595.50;5006854;28;20074;-68
2021/12/14 04:56:57;;;;;;;81.93;20.77;;;;;;;5.31;100.00;98589.41;5005938;28;20054;-68
2021/12/14 04:59:29;;;;;;;85.18;18.58;;;;;;;5.30;100.00;98595.44;5006106;28;20133;-68
2021/12/14 05:02:01;;;;;;;86.25;16.40;;;;;;;5.37;100.00;98590.25;5007566;28;20132;-68
2021/12/14 05:04:29;;;;;;;77.67;14.57;;;;;;;5.39;100.00;98601.41;5013721;28;20046;-67
2021/12/14 05:07:15;;;;;;;100.82;18.88;;;;;;;5.34;100.00;98587.69;5006658;28;20064;-68
2021/12/14 05:09:42;;;;;;;54.95;15.10;;;;;;;5.40;100.00;98576.50;4998870;28;20445;-68
2021/12/14 05:12:20;;;;;;;84.72;17.10;;;;;;;5.31;100.00;98576.56;5007341;28;20087;-68
2021/12/14 05:14:48;;;;;;;138.10;19.55;;;;;;;5.26;100.00;98583.44;4995644;28;20045;-67
2021/12/14 05:17:19;;;;;;;254.80;22.13;;;;;;;5.01;100.00;98592.13;5007034;28;20137;-68
2021/12/14 05:19:47;;;;;;;87.97;14.02;;;;;;;5.14;100.00;98572.34;5011953;28;20068;-67
2021/12/14 05:22:19;;;;;;;107.25;15.40;;;;;;;5.16;100.00;98562.91;5007768;28;20088;-68
2021/12/14 05:25:06;;;;;;;82.18;18.27;;;;;;;5.20;100.00;98541.44;4999982;28;20223;-68
2021/12/14 05:27:48;;;;;;;70.95;16.42;;;;;;;5.26;100.00;98532.81;5000021;28;20134;-68
2021/12/14 05:30:27;;;;;;;150.32;17.50;;;;;;;5.10;100.00;98524.31;4998175;28;20217;-68
2021/12/14 05:33:12;;;;;;;313.83;29.60;;;;;;;4.74;100.00;98538.22;5008132;28;20144;-67
2021/12/14 05:35:42;;;;;;;189.90;20.73;;;;;;;4.88;100.00;98538.16;5009236;28;20104;-68
2021/12/14 05:38:11;;;;;;;306.05;25.45;;;;;;;4.73;100.00;98534.78;4999719;28;20146;-67
2021/12/14 05:40:56;;;;;;;237.25;23.20;;;;;;;4.80;100.00;98535.63;4999367;28;20137;-67
2021/12/14 05:43:29;;;;;;;233.75;17.67;;;;;;;4.89;100.00;98530.44;5008093;28;20148;-68
2021/12/14 05:45:57;;;;;;;;;;;;;;;4.88;100.00;98543.31;5008985;28;20133;-68
2021/12/14 05:48:28;;;;;;;180.38;25.13;;;;;;;4.79;100.00;98539.06;4999390;28;19932;-68
2021/12/14 05:50:59;;;;;;;399.63;40.08;;;;;;;4.76;100.00;98537.34;5019696;28;20451;-67
2021/12/14 05:53:32;;;;;;;147.82;19.63;;;;;;;4.80;100.00;98535.63;5007395;28;21354;-67
2021/12/14 05:56:01;;;;;;;387.90;31.23;;;;;;;4.62;100.00;98549.41;5002200;28;20507;-67
2021/12/14 05:58:29;;;;;;;303.77;26.08;;;;;;;4.49;100.00;98547.72;5007282;28;20129;-68
2021/12/14 06:01:08;;;;;;;111.53;15.57;;;;;;;4.36;100.00;98557.19;5012376;28;20042;-68
2021/12/14 06:03:42;;;;;;;87.47;14.88;;;;;;;4.35;100.00;98568.31;5000479;28;20144;-67
2021/12/14 06:06:16;;;;;;;151.70;20.92;;;;;;;4.26;100.00;98588.91;5025687;28;20129;-67
2021/12/14 06:08:44;;;;;;;115.25;14.63;;;;;;;4.43;100.00;98586.31;5008858;28;20121;-68
2021/12/14 06:11:20;;;;;;;169.80;18.70;;;;;;;4.57;100.00;98587.13;4992793;28;20052;-68
2021/12/14 06:13:48;;;;;;;312.63;24.13;;;;;;;4.40;100.00;98574.31;5007677;28;20305;-68
2021/12/14 06:16:32;;;;;;;88.15;13.77;;;;;;;4.54;100.00;98579.44;5005505;28;20052;-67
2021/12/14 06:19:21;;;;;;;93.68;12.35;;;;;;;4.45;100.00;98584.56;5010457;28;20050;-67
2021/12/14 06:22:18;;;;;;;93.80;15.45;;;;;;;4.37;100.00;98613.72;5004550;28;20064;-67
2021/12/14 06:24:52;;;;;;;69.40;10.80;;;;;;;4.41;100.00;98619.72;5009402;28;20042;-68
2021/12/14 06:27:21;;;;;;;187.95;17.85;;;;;;;4.30;100.00;98619.72;5012580;28;20162;-66
2021/12/14 06:29:56;;;;;;;320.58;22.38;;;;;;;4.36;100.00;98596.59;5007360;28;20418;-68
2021/12/14 06:32:32;;;;;;;168.45;13.80;;;;;;;4.50;100.00;98588.88;5010415;28;20142;-67
2021/12/14 06:35:08;;;;;;;324.48;21.00;;;;;;;4.38;100.00;98583.75;4998646;28;20085;-68
2021/12/14 06:40:52;;;;;;;250.13;19.25;;;;;;;3.88;100.00;98584.66;5010837;28;20168;-68
2021/12/14 06:43:25;;;;;;;130.55;13.88;;;;;;;4.06;100.00;98584.66;5019785;28;20128;-68
2021/12/14 06:45:56;;;;;;;93.35;12.40;;;;;;;3.96;100.00;98572.66;5030402;28;20485;-68
2021/12/14 06:48:33;;;;;;;115.40;13.95;;;;;;;4.07;100.00;98573.50;5031694;28;20148;-68
2021/12/14 06:51:13;;;;;;;200.18;15.80;;;;;;;3.97;100.00;98589.78;5021543;28;20133;-67
2021/12/14 06:53:41;;;;;;;300.15;21.00;;;;;;;3.85;100.00;98597.47;5011327;28;20074;-66
2021/12/14 06:56:11;;;;;;;154.50;13.60;;;;;;;3.87;100.00;98588.91;5027492;28;20132;-68
2021/12/14 06:58:48;;;;;;;137.48;13.18;;;;;;;4.02;100.00;98584.66;5012533;28;20132;-68
2021/12/14 07:01:20;;;;;;;91.60;11.55;;;;;;;4.03;100.00;98599.19;5028734;28;20061;-68
2021/12/14 07:03:51;;;;;;;315.50;21.63;;;;;;;3.86;100.00;98602.63;5029483;28;20050;-68
2021/12/14 07:06:29;;;;;;;99.38;11.13;;;;;;;4.01;100.00;98614.59;5013020;28;20189;-67
2021/12/14 07:09:03;;;;;;;234.88;16.33;;;;;;;3.97;100.00;98620.63;5010220;28;20429;-68
2021/12/14 07:11:31;;;;;;;288.77;18.88;;;;;;;4.04;100.00;98622.31;5011153;28;20499;-67
2021/12/14 07:13:58;;;;;;;438.65;27.27;;;;;;;3.85;100.00;98618.00;5011556;28;20129;-69
2021/12/14 07:16:37;;;;;;;421.02;24.92;;;;;;;3.83;100.00;98604.31;5010305;28;20096;-68
2021/12/14 07:19:06;;;;;;;357.15;23.02;;;;;;;3.89;100.00;98606.91;5010903;28;20140;-67
2021/12/14 07:21:50;;;;;;;300.65;20.70;;;;;;;3.95;100.00;98617.19;5006602;28;20054;-68
2021/12/14 07:24:23;;;;;;;428.15;30.13;;;;;;;3.92;100.00;98619.72;4991421;28;20050;-67
2021/12/14 07:27:22;;;;;;;197.68;18.65;;;;;;;4.02;100.00;98615.47;4999444;28;20177;-68
2021/12/14 07:29:50;;;;;;;277.95;17.80;;;;;;;4.02;100.00;98612.91;5010728;28;20049;-67
2021/12/14 07:32:38;;;;;;;315.63;21.58;;;;;;;3.73;100.00;98617.16;5011046;28;20077;-67
2021/12/14 07:35:32;;;;;;;281.25;21.65;;;;;;;3.84;100.00;98616.31;5009472;28;20064;-68
2021/12/14 07:38:28;;;;;;;140.88;15.15;;;;;;;3.71;100.00;98616.28;5011086;28;20084;-68
2021/12/14 07:40:59;;;;;;;97.80;10.88;;;;;;;3.78;100.00;98623.13;5009862;28;20514;-67
2021/12/14 07:43:37;;;;;;;313.40;21.70;;;;;;;3.63;100.00;98635.13;5010833;28;20593;-67
2021/12/14 07:46:27;;;;;;;127.13;15.18;;;;;;;3.90;100.00;98626.56;5009445;28;20060;-68
2021/12/14 07:49:05;;;;;;;227.98;17.90;;;;;;;3.93;100.00;98636.88;5010108;28;20065;-66
2021/12/14 07:51:36;;;;;;;237.82;18.20;;;;;;;3.62;100.00;98646.22;5010592;28;20503;-68
2021/12/14 07:54:11;;;;;;;139.15;14.23;;;;;;;3.70;100.00;98658.22;5010314;28;20046;-68
2021/12/14 07:56:43;;;;;;;64.50;10.45;;;;;;;3.90;100.00;98652.25;5009777;28;20140;-67
2021/12/14 07:59:18;;;;;;;187.68;13.55;;;;;;;3.75;100.00;98655.69;5010256;28;20077;-67
2021/12/14 08:01:47;;;;;;;240.85;17.67;;;;;;;3.81;100.00;98665.09;5010221;28;20168;-68
2021/12/14 08:04:16;;;;;;;130.20;13.40;;;;;;;3.80;100.00;98661.66;5010620;28;20380;-68
2021/12/14 08:06:45;;;;;;;221.98;18.10;;;;;;;3.65;100.00;98664.19;5010408;28;20074;-68
2021/12/14 08:09:19;;;;;;;169.55;16.48;;;;;;;3.73;100.00;98683.91;4992484;28;20054;-68
2021/12/14 08:11:47;;;;;;;210.05;18.05;;;;;;;3.80;100.00;98677.06;5008538;28;20070;-68
2021/12/14 08:14:21;;;;;;;73.00;10.13;;;;;;;3.88;100.00;98665.13;5009708;28;20049;-67
2021/12/14 08:16:54;;;;;;;217.25;16.92;;;;;;;4.01;100.00;98668.53;5009283;28;20077;-67
2021/12/14 08:19:50;;;;;;;312.63;21.17;;;;;;;3.81;100.00;98671.09;5010276;28;20576;-67
2021/12/14 08:22:32;;;;;;;114.32;11.75;;;;;;;3.98;100.00;98674.53;5007254;28;20125;-67
2021/12/14 08:25:01;;;;;;;254.00;17.60;;;;;;;3.92;100.00;98676.25;5008968;28;20074;-68
2021/12/14 08:27:30;;;;;;;93.43;13.93;;;;;;;4.17;100.00;98680.56;5008809;28;20145;-67
2021/12/14 08:30:01;;;;;;;212.68;17.00;;;;;;;4.01;100.00;98689.09;5008231;28;20060;-68
2021/12/14 08:32:35;;;;;;;258.70;21.20;;;;;;;3.89;100.00;98686.53;5010175;28;20136;-68
2021/12/14 08:35:07;;;;;;;211.43;15.38;;;;;;;3.91;100.00;98693.38;5008894;28;20148;-67
2021/12/14 08:37:36;;;;;;;330.85;22.80;;;;;;;4.04;100.00;98688.25;5008705;28;20072;-68
2021/12/14 08:40:11;;;;;;;79.35;11.80;;;;;;;4.01;100.00;98683.09;5008067;28;20108;-68
2021/12/14 08:43:10;;;;;;;54.95;11.85;;;;;;;4.16;100.00;98693.41;5009022;28;20081;-68
2021/12/14 08:45:58;;;;;;;94.05;11.18;;;;;;;3.95;100.00;98691.69;5007344;28;20088;-68
2021/12/14 08:48:36;;;;;;;103.22;10.23;;;;;;;4.04;100.00;98696.81;5001739;28;20058;-67
2021/12/14 08:51:13;;;;;;;162.48;12.57;;;;;;;3.73;100.00;98695.91;5009192;28;20509;-68
2021/12/14 08:54:12;;;;;;;159.98;16.55;;;;;;;3.68;100.00;98695.03;5009835;28;20053;-67
2021/12/14 08:56:47;;;;;;;124.97;14.90;;;;;;;3.77;100.00;98687.34;5008660;28;20083;-67
2021/12/14 08:59:15;;;;;;;100.30;12.75;;;;;;;4.07;100.00;98681.41;5009470;28;20046;-67
2021/12/14 09:01:44;;;;;;;58.78;10.00;;;;;;;4.21;100.00;98678.84;5009454;28;20550;-68
2021/12/14 09:04:36;;;;;;;187.82;15.80;;;;;;;4.30;100.00;98694.28;5008536;28;20065;-67
2021/12/14 09:07:14;;;;;;;101.80;12.75;;;;;;;4.27;100.00;98689.13;5024660;28;20137;-68
2021/12/14 09:09:42;;;;;;;247.73;18.50;;;;;;;3.92;100.00;98697.66;5007052;28;20192;-67
2021/12/14 09:12:24;;;;;;;76.13;12.52;;;;;;;4.48;100.00;98690.00;5016572;28;20520;-68
2021/12/14 09:14:54;;;;;;;183.93;16.55;;;;;;;4.37;100.00;98679.72;5016453;28;20125;-68
2021/12/14 09:17:22;;;;;;;239.13;20.40;;;;;;;4.41;100.00;98676.28;5009452;28;20122;-68
2021/12/14 09:20:05;;;;;;;97.22;14.13;;;;;;;4.35;100.00;98673.72;5006510;28;20133;-68
2021/12/14 09:22:41;;;;;;;91.22;13.00;;;;;;;3.99;100.00;98680.53;5007943;28;20056;-68
2021/12/14 09:25:12;;;;;;;47.85;11.05;;;;;;;4.10;100.00;98685.69;5001260;28;20073;-67
2021/12/14 09:27:41;;;;;;;153.13;15.48;;;;;;;4.12;100.00;98689.97;5011135;28;20050;-68
2021/12/14 09:30:11;;;;;;;92.45;13.80;;;;;;;4.16;100.00;98689.13;5012330;28;20094;-68
2021/12/14 09:32:39;;;;;;;107.10;17.08;;;;;;;4.21;100.00;98703.69;5012703;28;20050;-69
2021/12/14 09:35:13;;;;;;;76.82;12.75;;;;;;;4.00;100.00;98707.94;5012744;28;20053;-68
2021/12/14 09:37:42;;;;;;;77.55;14.13;;;;;;;4.18;100.00;98700.25;5011708;28;20129;-67
2021/12/14 09:40:15;;;;;;;35.15;9.18;;;;;;;4.24;100.00;98701.13;5011902;28;20148;-67
2021/12/14 09:42:43;;;;;;;73.50;15.77;;;;;;;4.13;100.00;98713.97;5012440;28;20088;-67
2021/12/14 09:45:21;;;;;;;59.83;16.17;;;;;;;4.29;100.00;98712.25;5012068;28;20628;-68
2021/12/14 09:47:49;;;;;;;100.07;16.80;;;;;;;4.38;100.00;98713.13;5011037;28;20129;-68
2021/12/14 09:50:27;;;;;;;39.80;12.30;;;;;;;4.44;100.00;98711.41;5012313;28;20132;-68
2021/12/14 09:52:56;;;;;;;22.13;11.02;;;;;;;4.59;100.00;98709.69;5012055;28;20053;-67
2021/12/14 09:55:27;;;;;;;40.25;11.60;;;;;;;4.79;100.00;98703.69;5011957;28;20137;-68
2021/12/14 09:57:58;;;;;;;34.17;12.68;;;;;;;4.47;100.00;98703.69;5012443;28;20096;-68
2021/12/14 10:01:08;;;;;;;35.47;15.18;;;;;;;4.66;100.00;98707.97;5010592;28;20137;-67
2021/12/14 10:03:36;;;;;;;31.13;11.63;;;;;;;4.63;100.00;98695.13;5002382;28;20069;-68
2021/12/14 10:06:08;;;;;;;41.42;14.75;;;;;;;4.32;100.00;98705.41;5012337;28;20038;-68
2021/12/14 10:08:45;;;;;;;38.22;13.82;;;;;;;4.76;100.00;98701.09;5009140;28;20046;-69
2021/12/14 10:11:25;;;;;;;49.90;14.48;;;;;;;4.58;100.00;98695.16;5008717;28;20133;-67
2021/12/14 10:13:55;;;;;;;22.98;10.95;;;;;;;4.84;100.00;98688.25;5031326;28;20049;-69
2021/12/14 10:16:23;;;;;;;39.58;14.02;;;;;;;4.71;100.00;98689.97;5006856;28;20041;-67
2021/12/14 10:18:59;;;;;;;40.22;15.98;;;;;;;4.81;100.00;98681.38;5011610;28;20049;-67
2021/12/14 10:21:41;;;;;;;25.77;12.40;;;;;;;4.99;100.00;98688.19;5010517;28;20504;-67
2021/12/14 10:24:09;;;;;;;27.48;11.73;;;;;;;5.01;100.00;98695.06;5012440;28;20077;-68
2021/12/14 10:26:41;;;;;;;29.27;12.52;;;;;;;4.95;100.00;98692.50;5012022;28;20061;-68
2021/12/14 10:29:09;;;;;;;21.73;10.63;;;;;;;5.18;100.00;98689.88;5017786;28;20073;-67
2021/12/14 10:31:48;;;;;;;44.35;12.77;;;;;;;4.52;100.00;98690.00;5015251;28;20142;-68
2021/12/14 10:34:24;;;;;;;30.25;11.20;;;;;;;4.82;100.00;98689.09;5009951;28;20057;-67
2021/12/14 10:37:06;;;;;;;23.70;10.85;;;;;;;4.50;100.00;98691.72;5009506;28;20050;-67
2021/12/14 10:44:57;;;;;;;30.50;13.80;;;;;;;4.91;100.00;98707.97;5001079;28;20459;-67
2021/12/14 10:47:27;;;;;;;28.52;13.18;;;;;;;4.99;100.00;98703.63;5007558;28;20141;-67
2021/12/14 10:49:56;;;;;;;21.33;9.43;;;;;;;5.51;100.00;98710.34;5011171;28;20115;-68
2021/12/14 10:52:27;;;;;;;19.17;8.80;;;;;;;5.64;100.00;98706.88;5010733;28;20045;-67
2021/12/14 10:55:02;;;;;;;19.70;8.48;;;;;;;5.37;100.00;98694.97;4999022;28;20054;-68
2021/12/14 10:57:34;;;;;;;24.60;10.88;;;;;;;5.41;100.00;98700.09;5011185;28;20049;-67
2021/12/14 11:00:09;;;;;;;37.72;13.45;;;;;;;5.05;100.00;98703.63;5009613;28;20602;-68
2021/12/14 11:02:41;;;;;;;21.58;10.80;;;;;;;5.48;100.00;98708.66;5011534;28;20050;-68
2021/12/14 11:05:17;;;;;;;22.77;11.27;;;;;;;5.65;100.00;98708.56;5006291;28;20055;-67
2021/12/14 11:07:47;;;;;;;24.50;12.25;;;;;;;5.76;100.00;98711.09;5010029;28;20081;-67
2021/12/14 11:10:18;;;;;;;14.60;8.57;;;;;;;5.74;100.00;98703.38;5010090;28;20045;-68
2021/12/14 11:12:49;;;;;;;19.83;11.43;;;;;;;5.19;100.00;98696.72;5011376;28;20046;-68
2021/12/14 11:15:24;;;;;;;17.48;10.05;;;;;;;5.17;100.00;98705.31;5011363;28;20140;-68
2021/12/14 11:18:09;;;;;;;22.02;10.60;;;;;;;5.38;100.00;98697.53;5011327;28;20049;-67
2021/12/14 11:20:39;;;;;;;16.60;9.02;;;;;;;5.73;100.00;98700.81;5009886;28;20132;-67
2021/12/14 11:23:20;;;;;;;18.83;10.45;;;;;;;5.76;100.00;98703.38;5012875;28;20132;-67
2021/12/14 11:25:50;;;;;;;19.67;10.35;;;;;;;5.84;100.00;98702.47;5015334;28;20129;-68
2021/12/14 11:28:39;;;;;;;24.15;12.00;;;;;;;5.80;100.00;98703.34;5011089;28;20145;-68
2021/12/14 11:31:11;;;;;;;29.17;14.57;;;;;;;5.34;100.00;98693.25;5011293;28;20133;-67
2021/12/14 11:34:08;;;;;;;22.30;11.57;;;;;;;5.74;100.00;98695.63;5010367;28;20474;-68
2021/12/14 11:36:42;;;;;;;23.23;12.30;;;;;;;5.53;100.00;98693.19;5011151;28;20046;-68
2021/12/14 11:39:27;;;;;;;25.70;13.20;;;;;;;5.63;100.00;98690.56;5010400;28;20124;-68
2021/12/14 11:42:05;;;;;;;33.13;14.52;;;;;;;5.55;100.00;98686.31;5009805;28;20053;-68
2021/12/14 11:44:39;;;;;;;24.50;13.27;;;;;;;5.23;100.00;98688.13;5010108;28;20133;-67
2021/12/14 11:47:33;;;;;;;25.48;12.95;;;;;;;5.35;100.00;98684.66;5009926;28;20062;-68
2021/12/14 11:50:05;;;;;;;27.15;14.23;;;;;;;5.51;100.00;98676.88;5009672;28;20556;-67
2021/12/14 11:53:18;;;;;;;27.80;15.57;;;;;;;5.20;100.00;98672.72;5011012;28;20092;-68
2021/12/14 11:55:47;;;;;;;31.65;15.63;;;;;;;4.99;100.00;98673.63;5020562;28;20416;-68
2021/12/14 11:58:30;;;;;;;31.77;15.20;;;;;;;5.32;100.00;98670.97;5006790;28;20077;-68
2021/12/14 12:01:07;;;;;;;30.77;15.32;;;;;;;5.12;100.00;98661.56;5000372;28;20136;-67
2021/12/14 12:03:40;;;;;;;35.13;17.50;;;;;;;5.03;100.00;98666.75;5008401;28;20487;-68
2021/12/14 12:09:28;;;;;;;29.98;14.65;;;;;;;5.22;100.00;98672.69;5009570;28;20132;-67
2021/12/14 12:12:29;;;;;;;28.48;14.73;;;;;;;5.36;100.00;98673.50;5006872;28;20054;-67
2021/12/14 12:15:03;;;;;;;25.13;12.80;;;;;;;5.50;100.00;98668.28;5005480;28;20141;-68
2021/12/14 12:17:35;;;;;;;24.83;12.52;;;;;;;5.38;100.00;98665.75;5009857;28;20097;-67
2021/12/14 12:20:28;;;;;;;22.63;12.38;;;;;;;5.20;100.00;98666.69;5004664;28;20046;-69
2021/12/14 12:23:01;;;;;;;29.50;13.93;;;;;;;5.14;100.00;98672.72;5010047;28;20408;-68